createdAt,value
2018-04-23T00:00:01.407Z,976.89
2018-04-23T00:01:01.338Z,976.95
2018-04-23T00:02:01.263Z,976.87
2018-04-23T00:03:01.192Z,976.93
2018-04-23T00:04:01.117Z,976.88
2018-04-23T00:05:01.042Z,976.87
2018-04-23T00:06:00.971Z,976.84
2018-04-23T00:07:00.899Z,976.81
2018-04-23T00:08:00.837Z,976.74
2018-04-23T00:09:00.752Z,976.72
2018-04-23T00:10:00.677Z,976.68
2018-04-23T00:11:00.605Z,976.63
2018-04-23T00:12:00.529Z,976.59
2018-04-23T00:13:00.457Z,976.54
2018-04-23T00:14:00.387Z,976.56
2018-04-23T00:15:00.311Z,976.57
2018-04-23T00:16:00.243Z,976.59
2018-04-23T00:17:00.176Z,976.51
2018-04-23T00:18:00.091Z,976.48
2018-04-23T00:19:00.044Z,976.52
2018-04-23T00:19:59.946Z,976.50
2018-04-23T00:20:59.872Z,976.48
2018-04-23T00:21:59.804Z,976.53
2018-04-23T00:22:59.731Z,976.52
2018-04-23T00:23:59.657Z,976.54
2018-04-23T00:24:59.584Z,976.53
2018-04-23T00:25:59.516Z,976.53
2018-04-23T00:26:59.433Z,976.53
2018-04-23T00:27:59.360Z,976.50
2018-04-23T00:28:59.287Z,976.46
2018-04-23T00:29:59.214Z,976.40
2018-04-23T00:30:59.140Z,976.42
2018-04-23T00:31:59.068Z,976.48
2018-04-23T00:32:58.994Z,976.46
2018-04-23T00:33:58.945Z,976.52
2018-04-23T00:34:58.853Z,976.53
2018-04-23T00:35:58.775Z,976.45
2018-04-23T00:36:58.716Z,976.47
2018-04-23T00:37:58.632Z,976.44
2018-04-23T00:38:58.556Z,976.45
2018-04-23T00:39:58.481Z,976.46
2018-04-23T00:40:58.415Z,976.46
2018-04-23T00:41:58.339Z,976.46
2018-04-23T00:42:58.264Z,976.41
2018-04-23T00:43:58.195Z,976.41
2018-04-23T00:44:58.116Z,976.39
2018-04-23T00:45:58.045Z,976.41
2018-04-23T00:46:57.974Z,976.44
2018-04-23T00:47:57.896Z,976.42
2018-04-23T00:48:57.826Z,976.39
2018-04-23T00:49:57.750Z,976.37
2018-04-23T00:50:57.677Z,976.39
2018-04-23T00:51:57.623Z,976.37
2018-04-23T00:52:57.538Z,976.34
2018-04-23T00:53:57.464Z,976.35
2018-04-23T00:54:57.385Z,976.35
2018-04-23T00:55:57.311Z,976.35
2018-04-23T00:56:57.236Z,976.33
2018-04-23T00:57:57.168Z,976.38
2018-04-23T00:58:57.091Z,976.34
2018-04-23T00:59:57.019Z,976.41
2018-04-23T01:00:56.947Z,976.38
2018-04-23T01:01:56.880Z,976.39
2018-04-23T01:02:56.798Z,976.38
2018-04-23T01:03:56.725Z,976.40
2018-04-23T01:04:56.680Z,976.37
2018-04-23T01:05:56.580Z,976.38
2018-04-23T01:06:56.510Z,976.38
2018-04-23T01:07:56.433Z,976.36
2018-04-23T01:08:56.360Z,976.33
2018-04-23T01:09:56.292Z,976.32
2018-04-23T01:10:56.217Z,976.32
2018-04-23T01:11:56.139Z,976.31
2018-04-23T01:12:56.065Z,976.30
2018-04-23T01:13:55.992Z,976.30
2018-04-23T01:14:55.919Z,976.38
2018-04-23T01:15:55.846Z,976.36
2018-04-23T01:16:55.772Z,976.35
2018-04-23T01:17:55.699Z,976.38
2018-04-23T01:18:55.629Z,976.34
2018-04-23T01:19:55.556Z,976.32
2018-04-23T01:20:55.480Z,976.36
2018-04-23T01:21:55.407Z,976.34
2018-04-23T01:22:55.334Z,976.35
2018-04-23T01:23:55.259Z,976.34
2018-04-23T01:24:55.188Z,976.35
2018-04-23T01:25:55.113Z,976.34
2018-04-23T01:26:55.040Z,976.31
2018-04-23T01:27:54.966Z,976.34
2018-04-23T01:28:54.898Z,976.35
2018-04-23T01:29:54.817Z,976.33
2018-04-23T01:30:54.744Z,976.33
2018-04-23T01:31:54.673Z,976.29
2018-04-23T01:32:54.599Z,976.30
2018-04-23T01:33:54.528Z,976.26
2018-04-23T01:34:54.453Z,976.29
2018-04-23T01:35:54.377Z,976.29
2018-04-23T01:36:54.302Z,976.25
2018-04-23T01:37:54.231Z,976.26
2018-04-23T01:38:54.159Z,976.24
2018-04-23T01:39:54.083Z,976.25
2018-04-23T01:40:54.011Z,976.22
2018-04-23T01:41:53.938Z,976.24
2018-04-23T01:42:53.861Z,976.24
2018-04-23T01:43:54.690Z,976.22
2018-04-23T01:44:53.712Z,976.22
2018-04-23T01:45:53.723Z,976.24
2018-04-23T01:46:53.569Z,976.25
2018-04-23T01:47:53.491Z,976.26
2018-04-23T01:48:53.423Z,976.23
2018-04-23T01:49:53.344Z,976.30
2018-04-23T01:50:53.271Z,976.29
2018-04-23T01:51:53.196Z,976.35
2018-04-23T01:52:53.127Z,976.36
2018-04-23T01:53:53.050Z,976.39
2018-04-23T01:54:52.975Z,976.37
2018-04-23T01:55:52.904Z,976.40
2018-04-23T01:56:52.827Z,976.40
2018-04-23T01:57:52.761Z,976.39
2018-04-23T01:58:52.683Z,976.44
2018-04-23T01:59:53.427Z,976.43
2018-04-23T02:00:52.539Z,976.42
2018-04-23T02:01:52.476Z,976.46
2018-04-23T02:02:52.404Z,976.46
2018-04-23T02:03:52.316Z,976.45
2018-04-23T02:04:52.240Z,976.46
2018-04-23T02:05:52.165Z,976.48
2018-04-23T02:06:52.107Z,976.49
2018-04-23T02:07:52.016Z,976.49
2018-04-23T02:08:51.943Z,976.47
2018-04-23T02:09:51.870Z,976.48
2018-04-23T02:10:51.798Z,976.49
2018-04-23T02:11:52.428Z,976.49
2018-04-23T02:12:51.647Z,976.48
2018-04-23T02:13:51.579Z,976.51
2018-04-23T02:14:51.514Z,976.50
2018-04-23T02:15:51.425Z,976.52
2018-04-23T02:16:51.365Z,976.52
2018-04-23T02:17:51.279Z,976.52
2018-04-23T02:18:51.208Z,976.50
2018-04-23T02:19:51.131Z,976.51
2018-04-23T02:20:51.057Z,976.54
2018-04-23T02:21:50.989Z,976.52
2018-04-23T02:22:50.917Z,976.51
2018-04-23T02:23:50.832Z,976.56
2018-04-23T02:24:50.763Z,976.50
2018-04-23T02:25:50.692Z,976.52
2018-04-23T02:26:50.614Z,976.51
2018-04-23T02:27:50.537Z,976.49
2018-04-23T02:28:51.427Z,976.51
2018-04-23T02:29:50.390Z,976.50
2018-04-23T02:30:50.325Z,976.48
2018-04-23T02:31:50.240Z,976.48
2018-04-23T02:32:50.166Z,976.49
2018-04-23T02:33:50.119Z,976.50
2018-04-23T02:34:50.022Z,976.49
2018-04-23T02:35:49.945Z,976.48
2018-04-23T02:36:49.876Z,976.47
2018-04-23T02:37:49.796Z,976.50
2018-04-23T02:38:49.725Z,976.48
2018-04-23T02:39:49.664Z,976.45
2018-04-23T02:40:49.575Z,976.45
2018-04-23T02:41:49.502Z,976.51
2018-04-23T02:42:49.427Z,976.50
2018-04-23T02:43:49.364Z,976.50
2018-04-23T02:44:49.278Z,976.49
2018-04-23T02:45:49.205Z,976.50
2018-04-23T02:46:49.936Z,976.52
2018-04-23T02:47:49.054Z,976.51
2018-04-23T02:48:48.982Z,976.50
2018-04-23T02:49:48.927Z,976.49
2018-04-23T02:50:48.839Z,976.46
2018-04-23T02:51:48.756Z,976.43
2018-04-23T02:52:48.685Z,976.43
2018-04-23T02:53:48.610Z,976.41
2018-04-23T02:54:48.541Z,976.42
2018-04-23T02:55:48.464Z,976.42
2018-04-23T02:56:48.420Z,976.43
2018-04-23T02:57:48.314Z,976.43
2018-04-23T02:58:48.239Z,976.43
2018-04-23T02:59:48.165Z,976.46
2018-04-23T03:00:48.093Z,976.43
2018-04-23T03:01:48.019Z,976.41
2018-04-23T03:02:47.954Z,976.41
2018-04-23T03:03:47.869Z,976.44
2018-04-23T03:04:47.793Z,976.44
2018-04-23T03:05:47.720Z,976.41
2018-04-23T03:06:47.648Z,976.42
2018-04-23T03:07:47.578Z,976.42
2018-04-23T03:08:47.505Z,976.42
2018-04-23T03:09:47.428Z,976.41
2018-04-23T03:10:47.353Z,976.42
2018-04-23T03:11:47.273Z,976.38
2018-04-23T03:12:47.201Z,976.41
2018-04-23T03:13:47.132Z,976.45
2018-04-23T03:14:47.052Z,976.46
2018-04-23T03:15:46.975Z,976.45
2018-04-23T03:16:46.902Z,976.47
2018-04-23T03:17:46.831Z,976.43
2018-04-23T03:18:46.755Z,976.48
2018-04-23T03:19:46.683Z,976.45
2018-04-23T03:20:46.605Z,976.47
2018-04-23T03:21:46.531Z,976.51
2018-04-23T03:22:46.457Z,976.56
2018-04-23T03:23:46.383Z,976.54
2018-04-23T03:24:46.318Z,976.61
2018-04-23T03:25:46.239Z,976.68
2018-04-23T03:26:46.162Z,976.65
2018-04-23T03:27:46.089Z,976.64
2018-04-23T03:28:46.011Z,976.63
2018-04-23T03:29:45.938Z,976.71
2018-04-23T03:30:46.450Z,976.70
2018-04-23T03:31:45.803Z,976.69
2018-04-23T03:32:45.745Z,976.68
2018-04-23T03:33:45.643Z,976.66
2018-04-23T03:34:45.568Z,976.66
2018-04-23T03:35:45.491Z,976.70
2018-04-23T03:36:45.433Z,976.76
2018-04-23T03:37:45.350Z,976.75
2018-04-23T03:38:45.276Z,976.75
2018-04-23T03:39:45.200Z,976.83
2018-04-23T03:40:45.122Z,976.82
2018-04-23T03:41:45.054Z,976.80
2018-04-23T03:42:44.974Z,976.83
2018-04-23T03:43:44.901Z,976.85
2018-04-23T03:44:44.825Z,976.81
2018-04-23T03:45:44.755Z,976.87
2018-04-23T03:46:44.684Z,976.87
2018-04-23T03:47:45.452Z,976.82
2018-04-23T03:48:44.528Z,976.82
2018-04-23T03:49:44.454Z,976.83
2018-04-23T03:50:44.401Z,976.83
2018-04-23T03:51:44.304Z,976.82
2018-04-23T03:52:44.234Z,976.85
2018-04-23T03:53:44.165Z,976.87
2018-04-23T03:54:44.082Z,976.82
2018-04-23T03:55:44.024Z,976.84
2018-04-23T03:56:43.936Z,976.85
2018-04-23T03:57:43.897Z,976.88
2018-04-23T03:58:43.786Z,976.90
2018-04-23T03:59:43.710Z,976.88
2018-04-23T04:00:43.637Z,976.89
2018-04-23T04:01:43.565Z,976.87
2018-04-23T04:02:43.496Z,976.89
2018-04-23T04:03:43.415Z,976.90
2018-04-23T04:04:43.965Z,976.90
2018-04-23T04:05:43.266Z,976.92
2018-04-23T04:06:43.210Z,976.90
2018-04-23T04:07:43.124Z,976.91
2018-04-23T04:08:43.044Z,976.90
2018-04-23T04:09:42.967Z,976.90
2018-04-23T04:10:42.898Z,976.93
2018-04-23T04:11:42.829Z,976.89
2018-04-23T04:12:42.744Z,976.95
2018-04-23T04:13:42.673Z,976.88
2018-04-23T04:14:42.596Z,976.91
2018-04-23T04:15:42.527Z,976.93
2018-04-23T04:16:42.455Z,976.91
2018-04-23T04:17:42.378Z,976.92
2018-04-23T04:18:42.303Z,976.96
2018-04-23T04:19:42.236Z,976.97
2018-04-23T04:20:42.163Z,976.95
2018-04-23T04:21:42.080Z,977.01
2018-04-23T04:22:42.009Z,977.01
2018-04-23T04:23:41.931Z,977.02
2018-04-23T04:24:41.921Z,977.03
2018-04-23T04:25:41.783Z,977.01
2018-04-23T04:26:41.712Z,977.01
2018-04-23T04:27:41.640Z,977.01
2018-04-23T04:28:41.560Z,977.03
2018-04-23T04:29:41.486Z,977.03
2018-04-23T04:30:41.416Z,977.03
2018-04-23T04:31:41.340Z,977.01
2018-04-23T04:32:41.265Z,977.04
2018-04-23T04:33:41.190Z,977.04
2018-04-23T04:34:41.120Z,977.02
2018-04-23T04:35:41.127Z,977.02
2018-04-23T04:36:40.966Z,977.01
2018-04-23T04:37:40.899Z,977.01
2018-04-23T04:38:40.819Z,977.04
2018-04-23T04:39:40.756Z,977.03
2018-04-23T04:40:40.673Z,977.03
2018-04-23T04:41:40.610Z,977.01
2018-04-23T04:42:40.523Z,977.03
2018-04-23T04:43:40.451Z,977.04
2018-04-23T04:44:40.376Z,977.03
2018-04-23T04:45:40.332Z,977.07
2018-04-23T04:46:40.229Z,977.08
2018-04-23T04:47:40.155Z,977.03
2018-04-23T04:48:40.080Z,977.05
2018-04-23T04:49:40.003Z,977.07
2018-04-23T04:50:39.932Z,977.06
2018-04-23T04:51:39.863Z,977.08
2018-04-23T04:52:39.784Z,977.07
2018-04-23T04:53:39.714Z,977.08
2018-04-23T04:54:39.636Z,977.13
2018-04-23T04:55:39.561Z,977.13
2018-04-23T04:56:39.491Z,977.11
2018-04-23T04:57:39.432Z,977.13
2018-04-23T04:58:39.343Z,977.12
2018-04-23T04:59:39.266Z,977.18
2018-04-23T05:00:39.202Z,977.20
2018-04-23T05:01:39.971Z,977.20
2018-04-23T05:02:39.055Z,977.21
2018-04-23T05:03:38.972Z,977.21
2018-04-23T05:04:38.898Z,977.25
2018-04-23T05:05:38.823Z,977.23
2018-04-23T05:06:38.751Z,977.24
2018-04-23T05:07:38.682Z,977.23
2018-04-23T05:08:38.600Z,977.26
2018-04-23T05:09:38.537Z,977.21
2018-04-23T05:10:38.460Z,977.26
2018-04-23T05:11:38.381Z,977.25
2018-04-23T05:12:38.310Z,977.25
2018-04-23T05:13:38.235Z,977.27
2018-04-23T05:14:38.161Z,977.26
2018-04-23T05:15:38.095Z,977.26
2018-04-23T05:16:38.032Z,977.27
2018-04-23T05:17:37.942Z,977.28
2018-04-23T05:18:37.866Z,977.29
2018-04-23T05:19:37.793Z,977.29
2018-04-23T05:20:37.719Z,977.30
2018-04-23T05:21:37.645Z,977.31
2018-04-23T05:22:37.574Z,977.30
2018-04-23T05:23:37.519Z,977.29
2018-04-23T05:24:37.422Z,977.25
2018-04-23T05:25:37.381Z,977.29
2018-04-23T05:26:37.275Z,977.26
2018-04-23T05:27:37.208Z,977.27
2018-04-23T05:28:37.128Z,977.27
2018-04-23T05:29:37.056Z,977.30
2018-04-23T05:30:36.981Z,977.33
2018-04-23T05:31:36.908Z,977.33
2018-04-23T05:32:36.842Z,977.36
2018-04-23T05:33:36.762Z,977.36
2018-04-23T05:34:36.698Z,977.33
2018-04-23T05:35:36.614Z,977.37
2018-04-23T05:36:36.540Z,977.36
2018-04-23T05:37:36.482Z,977.37
2018-04-23T05:38:36.983Z,977.37
2018-04-23T05:39:36.324Z,977.37
2018-04-23T05:40:36.254Z,977.39
2018-04-23T05:41:36.182Z,977.37
2018-04-23T05:42:36.099Z,977.38
2018-04-23T05:43:36.029Z,977.40
2018-04-23T05:44:35.955Z,977.40
2018-04-23T05:45:35.887Z,977.40
2018-04-23T05:46:35.807Z,977.46
2018-04-23T05:47:35.731Z,977.45
2018-04-23T05:48:35.677Z,977.44
2018-04-23T05:49:35.592Z,977.47
2018-04-23T05:50:35.517Z,977.45
2018-04-23T05:51:35.437Z,977.46
2018-04-23T05:52:35.370Z,977.44
2018-04-23T05:53:35.294Z,977.49
2018-04-23T05:54:35.218Z,977.44
2018-04-23T05:55:35.144Z,977.45
2018-04-23T05:56:35.079Z,977.44
2018-04-23T05:57:35.002Z,977.44
2018-04-23T05:58:34.940Z,977.46
2018-04-23T05:59:34.853Z,977.45
2018-04-23T06:00:34.777Z,977.44
2018-04-23T06:01:34.708Z,977.43
2018-04-23T06:02:34.631Z,977.42
2018-04-23T06:03:34.560Z,977.39
2018-04-23T06:04:34.487Z,977.44
2018-04-23T06:05:34.414Z,977.44
2018-04-23T06:06:34.345Z,977.43
2018-04-23T06:07:34.268Z,977.45
2018-04-23T06:08:34.194Z,977.43
2018-04-23T06:09:34.121Z,977.44
2018-04-23T06:10:34.048Z,977.41
2018-04-23T06:11:33.975Z,977.44
2018-04-23T06:12:33.901Z,977.44
2018-04-23T06:13:33.832Z,977.43
2018-04-23T06:14:33.756Z,977.43
2018-04-23T06:15:33.681Z,977.47
2018-04-23T06:16:33.608Z,977.46
2018-04-23T06:17:33.543Z,977.46
2018-04-23T06:18:33.462Z,977.49
2018-04-23T06:19:33.390Z,977.48
2018-04-23T06:20:33.318Z,977.49
2018-04-23T06:21:33.245Z,977.52
2018-04-23T06:22:33.178Z,977.49
2018-04-23T06:23:33.100Z,977.52
2018-04-23T06:24:33.028Z,977.53
2018-04-23T06:25:32.951Z,977.53
2018-04-23T06:26:32.880Z,977.55
2018-04-23T06:27:32.811Z,977.56
2018-04-23T06:28:32.744Z,977.58
2018-04-23T06:29:32.663Z,977.59
2018-04-23T06:30:32.588Z,977.58
2018-04-23T06:31:32.519Z,977.63
2018-04-23T06:32:32.448Z,977.63
2018-04-23T06:33:32.371Z,977.60
2018-04-23T06:34:32.298Z,977.60
2018-04-23T06:35:32.224Z,977.61
2018-04-23T06:36:32.156Z,977.60
2018-04-23T06:37:32.082Z,977.60
2018-04-23T06:38:32.015Z,977.59
2018-04-23T06:39:31.992Z,977.62
2018-04-23T06:40:31.863Z,977.66
2018-04-23T06:41:31.796Z,977.64
2018-04-23T06:42:31.719Z,977.70
2018-04-23T06:43:31.656Z,977.68
2018-04-23T06:44:31.573Z,977.73
2018-04-23T06:45:31.501Z,977.72
2018-04-23T06:46:31.429Z,977.72
2018-04-23T06:47:31.361Z,977.69
2018-04-23T06:48:31.286Z,977.70
2018-04-23T06:49:31.221Z,977.68
2018-04-23T06:50:31.142Z,977.70
2018-04-23T06:51:31.070Z,977.68
2018-04-23T06:52:31.003Z,977.69
2018-04-23T06:53:30.923Z,977.71
2018-04-23T06:54:30.872Z,977.69
2018-04-23T06:55:30.778Z,977.69
2018-04-23T06:56:30.708Z,977.70
2018-04-23T06:57:30.639Z,977.69
2018-04-23T06:58:30.569Z,977.67
2018-04-23T06:59:30.495Z,977.64
2018-04-23T07:00:30.423Z,977.63
2018-04-23T07:01:30.347Z,977.67
2018-04-23T07:02:30.278Z,977.61
2018-04-23T07:03:30.221Z,977.59
2018-04-23T07:04:30.131Z,977.61
2018-04-23T07:05:30.063Z,977.62
2018-04-23T07:06:29.988Z,977.63
2018-04-23T07:07:29.939Z,977.62
2018-04-23T07:08:29.843Z,977.61
2018-04-23T07:09:29.775Z,977.64
2018-04-23T07:10:29.757Z,977.62
2018-04-23T07:11:29.631Z,977.60
2018-04-23T07:12:29.557Z,977.63
2018-04-23T07:13:29.486Z,977.61
2018-04-23T07:14:29.413Z,977.62
2018-04-23T07:15:29.341Z,977.61
2018-04-23T07:16:29.269Z,977.62
2018-04-23T07:17:29.204Z,977.60
2018-04-23T07:18:29.137Z,977.62
2018-04-23T07:19:29.053Z,977.59
2018-04-23T07:20:28.982Z,977.60
2018-04-23T07:21:28.911Z,977.58
2018-04-23T07:22:28.842Z,977.60
2018-04-23T07:23:28.769Z,977.60
2018-04-23T07:24:28.701Z,977.60
2018-04-23T07:25:28.624Z,977.58
2018-04-23T07:26:28.561Z,977.52
2018-04-23T07:27:28.485Z,977.54
2018-04-23T07:28:28.412Z,977.58
2018-04-23T07:29:28.347Z,977.58
2018-04-23T07:30:28.270Z,977.55
2018-04-23T07:31:28.197Z,977.55
2018-04-23T07:32:28.132Z,977.60
2018-04-23T07:33:28.059Z,977.58
2018-04-23T07:34:27.984Z,977.58
2018-04-23T07:35:27.913Z,977.59
2018-04-23T07:36:27.848Z,977.58
2018-04-23T07:37:27.777Z,977.59
2018-04-23T07:38:27.700Z,977.55
2018-04-23T07:39:27.630Z,977.56
2018-04-23T07:40:27.559Z,977.57
2018-04-23T07:41:27.490Z,977.57
2018-04-23T07:42:27.415Z,977.57
2018-04-23T07:43:28.018Z,977.57
2018-04-23T07:44:27.273Z,977.59
2018-04-23T07:45:27.209Z,977.58
2018-04-23T07:46:27.152Z,977.58
2018-04-23T07:47:27.075Z,977.59
2018-04-23T07:48:26.987Z,977.56
2018-04-23T07:49:26.922Z,977.59
2018-04-23T07:50:26.851Z,977.56
2018-04-23T07:51:33.948Z,977.59
2018-04-23T07:53:38.588Z,977.55
2018-04-23T07:54:30.540Z,977.58
2018-04-23T07:56:35.337Z,977.53
2018-04-23T07:57:34.304Z,977.56
2018-04-23T07:59:27.122Z,977.57
2018-04-23T08:00:26.995Z,977.59
2018-04-23T08:02:30.975Z,977.59
2018-04-23T08:03:30.846Z,977.56
2018-04-23T08:05:34.673Z,977.58
2018-04-23T08:06:34.630Z,977.58
2018-04-23T08:08:38.566Z,977.59
2018-04-23T08:09:39.456Z,977.61
2018-04-23T08:10:38.382Z,977.61
2018-04-23T08:11:38.311Z,977.63
2018-04-23T08:12:38.241Z,977.57
2018-04-23T08:13:38.168Z,977.55
2018-04-23T08:14:38.111Z,977.60
2018-04-23T08:15:38.032Z,977.58
2018-04-23T08:16:37.960Z,977.57
2018-04-23T08:17:37.895Z,977.56
2018-04-23T08:18:37.833Z,977.54
2018-04-23T08:19:37.761Z,977.54
2018-04-23T08:20:37.682Z,977.54
2018-04-23T08:21:38.401Z,977.51
2018-04-23T08:22:37.559Z,977.54
2018-04-23T08:23:37.482Z,977.59
2018-04-23T08:24:37.404Z,977.53
2018-04-23T08:25:37.335Z,977.54
2018-04-23T08:26:37.266Z,977.52
2018-04-23T08:27:37.196Z,977.55
2018-04-23T08:28:37.128Z,977.56
2018-04-23T08:29:37.063Z,977.56
2018-04-23T08:30:36.997Z,977.54
2018-04-23T08:31:36.923Z,977.55
2018-04-23T08:32:36.852Z,977.56
2018-04-23T08:33:36.781Z,977.57
2018-04-23T08:34:36.717Z,977.56
2018-04-23T08:35:36.645Z,977.56
2018-04-23T08:36:36.573Z,977.58
2018-04-23T08:37:36.508Z,977.55
2018-04-23T08:38:37.086Z,977.55
2018-04-23T08:39:36.380Z,977.59
2018-04-23T08:40:36.300Z,977.58
2018-04-23T08:41:36.231Z,977.58
2018-04-23T08:42:36.162Z,977.55
2018-04-23T08:43:37.090Z,977.56
2018-04-23T08:44:36.032Z,977.51
2018-04-23T08:45:35.956Z,977.56
2018-04-23T08:46:35.887Z,977.55
2018-04-23T08:47:35.819Z,977.56
2018-04-23T08:48:35.753Z,977.56
2018-04-23T08:49:35.689Z,977.51
2018-04-23T08:50:35.614Z,977.48
2018-04-23T08:51:35.546Z,977.51
2018-04-23T08:52:35.490Z,977.50
2018-04-23T08:53:35.420Z,977.52
2018-04-23T08:54:35.357Z,977.48
2018-04-23T08:55:35.273Z,977.51
2018-04-23T08:56:35.207Z,977.48
2018-04-23T08:57:35.134Z,977.54
2018-04-23T08:58:35.065Z,977.51
2018-04-23T08:59:34.999Z,977.49
2018-04-23T09:00:34.956Z,977.53
2018-04-23T09:01:34.860Z,977.50
2018-04-23T09:02:34.791Z,977.51
2018-04-23T09:03:34.731Z,977.52
2018-04-23T09:04:34.656Z,977.53
2018-04-23T09:05:34.588Z,977.54
2018-04-23T09:06:34.518Z,977.53
2018-04-23T09:07:34.480Z,977.54
2018-04-23T09:08:34.382Z,977.54
2018-04-23T09:09:34.318Z,977.55
2018-04-23T09:10:34.248Z,977.57
2018-04-23T09:11:34.184Z,977.58
2018-04-23T09:12:34.109Z,977.58
2018-04-23T09:13:34.042Z,977.58
2018-04-23T09:14:33.975Z,977.60
2018-04-23T09:15:33.907Z,977.61
2018-04-23T09:16:33.838Z,977.61
2018-04-23T09:17:33.770Z,977.60
2018-04-23T09:18:33.705Z,977.60
2018-04-23T09:19:33.635Z,977.60
2018-04-23T09:20:33.566Z,977.59
2018-04-23T09:21:33.497Z,977.61
2018-04-23T09:22:33.431Z,977.58
2018-04-23T09:23:33.920Z,977.61
2018-04-23T09:24:33.292Z,977.57
2018-04-23T09:25:33.226Z,977.56
2018-04-23T09:26:33.157Z,977.56
2018-04-23T09:27:33.921Z,977.56
2018-04-23T09:28:33.034Z,977.58
2018-04-23T09:29:32.961Z,977.56
2018-04-23T09:30:32.885Z,977.56
2018-04-23T09:31:32.823Z,977.55
2018-04-23T09:32:32.753Z,977.55
2018-04-23T09:33:32.694Z,977.50
2018-04-23T09:34:32.630Z,977.53
2018-04-23T09:35:32.547Z,977.55
2018-04-23T09:36:32.479Z,977.53
2018-04-23T09:37:32.412Z,977.57
2018-04-23T09:38:32.348Z,977.54
2018-04-23T09:39:32.273Z,977.54
2018-04-23T09:40:32.213Z,977.54
2018-04-23T09:41:32.138Z,977.57
2018-04-23T09:42:32.071Z,977.55
2018-04-23T09:43:32.002Z,977.55
2018-04-23T09:44:31.999Z,977.58
2018-04-23T09:45:31.877Z,977.52
2018-04-23T09:46:31.797Z,977.51
2018-04-23T09:47:31.730Z,977.50
2018-04-23T09:48:31.689Z,977.52
2018-04-23T09:49:31.594Z,977.52
2018-04-23T09:50:31.523Z,977.47
2018-04-23T09:51:31.460Z,977.52
2018-04-23T09:52:31.389Z,977.50
2018-04-23T09:53:31.322Z,977.47
2018-04-23T09:54:31.254Z,977.46
2018-04-23T09:55:31.190Z,977.44
2018-04-23T09:56:31.117Z,977.44
2018-04-23T09:57:31.049Z,977.43
2018-04-23T09:58:30.978Z,977.44
2018-04-23T09:59:30.914Z,977.45
2018-04-23T10:00:30.872Z,977.44
2018-04-23T10:01:30.776Z,977.46
2018-04-23T10:02:30.707Z,977.46
2018-04-23T10:03:30.640Z,977.47
2018-04-23T10:04:30.570Z,977.42
2018-04-23T10:05:30.505Z,977.44
2018-04-23T10:06:30.437Z,977.45
2018-04-23T10:07:30.369Z,977.43
2018-04-23T10:08:30.299Z,977.42
2018-04-23T10:09:30.232Z,977.46
2018-04-23T10:10:30.165Z,977.41
2018-04-23T10:11:30.097Z,977.41
2018-04-23T10:12:30.030Z,977.42
2018-04-23T10:13:29.964Z,977.42
2018-04-23T10:14:29.914Z,977.40
2018-04-23T10:15:29.826Z,977.41
2018-04-23T10:16:29.757Z,977.41
2018-04-23T10:17:29.698Z,977.42
2018-04-23T10:18:29.645Z,977.40
2018-04-23T10:19:29.555Z,977.45
2018-04-23T10:20:29.496Z,977.46
2018-04-23T10:21:29.426Z,977.44
2018-04-23T10:22:29.356Z,977.38
2018-04-23T10:23:29.281Z,977.40
2018-04-23T10:24:29.941Z,977.40
2018-04-23T10:25:29.163Z,977.44
2018-04-23T10:26:29.082Z,977.42
2018-04-23T10:27:29.016Z,977.43
2018-04-23T10:28:28.873Z,977.46
2018-04-23T10:29:28.880Z,977.47
2018-04-23T10:30:28.812Z,977.39
2018-04-23T10:31:28.769Z,977.41
2018-04-23T10:32:28.675Z,977.38
2018-04-23T10:33:28.606Z,977.42
2018-04-23T10:34:28.543Z,977.37
2018-04-23T10:35:28.474Z,977.35
2018-04-23T10:36:28.402Z,977.38
2018-04-23T10:37:28.336Z,977.36
2018-04-23T10:38:28.267Z,977.36
2018-04-23T10:39:28.227Z,977.30
2018-04-23T10:40:28.131Z,977.35
2018-04-23T10:41:29.448Z,977.31
2018-04-23T10:42:27.997Z,977.34
2018-04-23T10:43:27.931Z,977.33
2018-04-23T10:44:27.862Z,977.35
2018-04-23T10:45:27.871Z,977.35
2018-04-23T10:46:27.727Z,977.33
2018-04-23T10:47:27.669Z,977.34
2018-04-23T10:48:27.594Z,977.30
2018-04-23T10:49:27.552Z,977.20
2018-04-23T10:50:27.950Z,977.31
2018-04-23T10:51:27.387Z,977.34
2018-04-23T10:52:27.325Z,977.24
2018-04-23T10:53:27.249Z,977.19
2018-04-23T10:54:27.183Z,977.13
2018-04-23T10:55:27.122Z,977.16
2018-04-23T10:56:27.050Z,977.09
2018-04-23T10:57:26.978Z,977.18
2018-04-23T10:58:26.912Z,977.10
2018-04-23T10:59:26.853Z,977.08
2018-04-23T11:00:26.773Z,977.04
2018-04-23T11:01:26.708Z,977.03
2018-04-23T11:02:26.661Z,977.03
2018-04-23T11:03:26.580Z,977.01
2018-04-23T11:04:26.510Z,977.05
2018-04-23T11:05:26.442Z,977.05
2018-04-23T11:06:26.368Z,977.02
2018-04-23T11:07:26.304Z,976.98
2018-04-23T11:08:26.231Z,976.99
2018-04-23T11:09:26.167Z,977.03
2018-04-23T11:10:26.098Z,976.92
2018-04-23T11:11:26.027Z,976.96
2018-04-23T11:12:25.960Z,976.91
2018-04-23T11:13:25.895Z,976.86
2018-04-23T11:14:25.827Z,976.90
2018-04-23T11:15:25.785Z,976.89
2018-04-23T11:16:25.694Z,976.87
2018-04-23T11:17:25.642Z,976.81
2018-04-23T11:18:25.558Z,976.82
2018-04-23T11:19:26.460Z,976.77
2018-04-23T11:20:25.421Z,976.79
2018-04-23T11:21:25.957Z,976.79
2018-04-23T11:22:25.290Z,976.74
2018-04-23T11:23:25.227Z,976.71
2018-04-23T11:24:25.152Z,976.66
2018-04-23T11:25:25.085Z,976.64
2018-04-23T11:26:25.018Z,976.74
2018-04-23T11:27:24.952Z,976.68
2018-04-23T11:28:24.881Z,976.65
2018-04-23T11:29:24.815Z,976.65
2018-04-23T11:30:24.751Z,976.65
2018-04-23T11:31:24.686Z,976.65
2018-04-23T11:32:24.614Z,976.77
2018-04-23T11:33:24.545Z,976.78
2018-04-23T11:34:24.487Z,976.83
2018-04-23T11:35:24.413Z,976.82
2018-04-23T11:36:24.346Z,976.79
2018-04-23T11:37:24.288Z,976.80
2018-04-23T11:38:24.217Z,976.83
2018-04-23T11:39:24.147Z,976.89
2018-04-23T11:40:24.081Z,977.03
2018-04-23T11:41:24.963Z,977.10
2018-04-23T11:42:23.949Z,976.99
2018-04-23T11:43:23.882Z,977.07
2018-04-23T11:44:23.810Z,977.09
2018-04-23T11:45:23.884Z,977.04
2018-04-23T11:46:23.691Z,976.99
2018-04-23T11:47:23.607Z,977.08
2018-04-23T11:48:23.541Z,977.12
2018-04-23T11:49:23.469Z,977.19
2018-04-23T11:50:23.403Z,977.30
2018-04-23T11:51:23.333Z,977.43
2018-04-23T11:52:23.267Z,977.43
2018-04-23T11:53:23.197Z,977.24
2018-04-23T11:54:23.128Z,977.27
2018-04-23T11:55:23.968Z,977.24
2018-04-23T11:56:23.004Z,977.24
2018-04-23T11:57:22.923Z,977.26
2018-04-23T11:58:22.854Z,977.28
2018-04-23T11:59:22.785Z,977.30
2018-04-23T12:00:22.716Z,977.36
2018-04-23T12:01:22.644Z,977.46
2018-04-23T12:02:22.580Z,977.55
2018-04-23T12:03:22.512Z,977.56
2018-04-23T12:04:22.437Z,977.53
2018-04-23T12:05:22.363Z,977.55
2018-04-23T12:06:22.301Z,977.54
2018-04-23T12:07:22.225Z,977.58
2018-04-23T12:08:22.152Z,977.58
2018-04-23T12:09:22.083Z,977.65
2018-04-23T12:10:22.015Z,977.67
2018-04-23T12:11:21.944Z,977.70
2018-04-23T12:12:22.361Z,977.68
2018-04-23T12:13:21.801Z,977.74
2018-04-23T12:14:22.472Z,977.71
2018-04-23T12:15:21.670Z,977.71
2018-04-23T12:16:21.593Z,977.75
2018-04-23T12:17:21.534Z,977.75
2018-04-23T12:18:21.450Z,977.76
2018-04-23T12:19:21.379Z,977.74
2018-04-23T12:20:21.314Z,977.70
2018-04-23T12:21:21.240Z,977.65
2018-04-23T12:22:21.171Z,977.61
2018-04-23T12:23:21.102Z,977.64
2018-04-23T12:24:21.028Z,977.67
2018-04-23T12:25:20.961Z,977.67
2018-04-23T12:26:20.886Z,977.68
2018-04-23T12:27:20.815Z,977.68
2018-04-23T12:28:20.750Z,977.68
2018-04-23T12:29:20.676Z,977.69
2018-04-23T12:30:20.606Z,977.71
2018-04-23T12:31:20.556Z,977.71
2018-04-23T12:32:20.465Z,977.72
2018-04-23T12:33:20.392Z,977.70